createdAt,value
2023-02-14T00:01:55.658Z,20.20
2023-02-14T00:04:24.350Z,20.80
2023-02-14T00:06:54.365Z,20.73
2023-02-14T00:09:24.322Z,20.10
2023-02-14T00:11:52.968Z,20.20
2023-02-14T00:14:39.151Z,19.60
2023-02-14T00:17:10.664Z,16.80
2023-02-14T00:19:39.653Z,22.30
2023-02-14T00:22:09.725Z,19.80
2023-02-14T00:24:38.488Z,19.47
2023-02-14T00:27:07.262Z,21.73
2023-02-14T00:29:36.153Z,19.77
2023-02-14T00:32:05.328Z,20.57
2023-02-14T00:34:36.605Z,19.77
2023-02-14T00:37:05.620Z,19.63
2023-02-14T00:39:35.752Z,22.60
2023-02-14T00:42:07.703Z,21.23
2023-02-14T00:44:36.339Z,21.13
2023-02-14T00:47:04.985Z,21.70
2023-02-14T00:49:33.701Z,21.67
2023-02-14T00:52:02.455Z,21.67
2023-02-14T00:54:34.040Z,22.43
2023-02-14T00:57:02.453Z,22.30
2023-02-14T00:59:31.009Z,21.63
2023-02-14T01:01:59.613Z,19.97
2023-02-14T01:04:28.263Z,23.23
2023-02-14T01:06:56.885Z,21.20
2023-02-14T01:09:25.388Z,23.33
2023-02-14T01:11:55.272Z,25.70
2023-02-14T01:14:23.940Z,24.90
2023-02-14T01:16:52.391Z,18.13
2023-02-14T01:19:21.024Z,21.50
2023-02-14T01:21:49.473Z,21.23
2023-02-14T01:24:18.049Z,21.13
2023-02-14T01:26:46.563Z,21.30
2023-02-14T01:29:16.591Z,22.50
2023-02-14T01:31:45.806Z,19.47
2023-02-14T01:34:14.314Z,23.10
2023-02-14T01:36:42.728Z,24.63
2023-02-14T01:39:15.512Z,21.13
2023-02-14T01:41:49.600Z,21.40
2023-02-14T01:45:03.532Z,20.00
2023-02-14T01:47:40.164Z,20.17
2023-02-14T01:50:14.948Z,23.70
2023-02-14T01:52:48.079Z,23.70
2023-02-14T01:55:20.708Z,25.10
2023-02-14T01:57:53.179Z,26.70
2023-02-14T02:00:41.229Z,19.93
2023-02-14T02:03:12.025Z,23.43
2023-02-14T02:05:48.806Z,24.70
2023-02-14T02:08:18.428Z,27.43
2023-02-14T02:10:46.909Z,25.87
2023-02-14T02:13:20.108Z,27.50
2023-02-14T02:16:03.644Z,23.30
2023-02-14T02:18:43.508Z,23.53
2023-02-14T02:22:02.533Z,23.00
2023-02-14T02:24:45.964Z,28.63
2023-02-14T02:27:38.613Z,28.13
2023-02-14T02:31:01.795Z,27.07
2023-02-14T02:34:37.167Z,23.47
2023-02-14T02:37:26.743Z,24.73
2023-02-14T02:40:18.819Z,25.93
2023-02-14T02:42:56.612Z,28.57
2023-02-14T02:45:35.616Z,29.00
2023-02-14T02:48:10.667Z,32.60
2023-02-14T02:51:12.564Z,30.87
2023-02-14T02:53:46.842Z,27.27
2023-02-14T02:56:38.451Z,30.00
2023-02-14T02:59:18.401Z,25.90
2023-02-14T03:02:04.951Z,28.57
2023-02-14T03:04:53.326Z,30.47
2023-02-14T03:07:39.451Z,28.10
2023-02-14T03:10:15.801Z,26.20
2023-02-14T03:13:32.481Z,30.37
2023-02-14T03:16:35.060Z,23.77
2023-02-14T03:19:34.186Z,23.70
2023-02-14T03:22:09.326Z,23.43
2023-02-14T03:24:49.199Z,29.07
2023-02-14T03:27:27.359Z,24.87
2023-02-14T03:30:04.523Z,24.20
2023-02-14T03:32:40.950Z,28.40
2023-02-14T03:35:19.718Z,28.13
2023-02-14T03:37:56.223Z,29.43
2023-02-14T03:40:31.029Z,24.30
2023-02-14T03:43:09.886Z,27.90
2023-02-14T03:45:44.568Z,22.73
2023-02-14T03:48:15.987Z,24.70
2023-02-14T03:50:47.809Z,25.80
2023-02-14T03:53:22.381Z,28.93
2023-02-14T03:56:01.232Z,26.07
2023-02-14T03:58:36.227Z,26.90
2023-02-14T04:01:12.748Z,23.20
2023-02-14T04:03:44.190Z,27.43
2023-02-14T04:06:12.778Z,28.30
2023-02-14T04:08:41.192Z,28.23
2023-02-14T04:11:09.758Z,31.50
2023-02-14T04:13:40.214Z,28.90
2023-02-14T04:16:09.379Z,31.37
2023-02-14T04:18:55.279Z,28.53
2023-02-14T04:21:23.814Z,30.37
2023-02-14T04:23:52.585Z,30.87
2023-02-14T04:26:21.187Z,34.53
2023-02-14T04:28:51.035Z,28.70
2023-02-14T04:31:19.589Z,27.60
2023-02-14T04:33:48.241Z,25.97
2023-02-14T04:36:16.860Z,28.10
2023-02-14T04:38:45.222Z,30.33
2023-02-14T04:41:13.823Z,28.73
2023-02-14T04:43:42.451Z,29.50
2023-02-14T04:46:12.379Z,28.70
2023-02-14T04:48:40.948Z,30.33
2023-02-14T04:51:09.500Z,32.23
2023-02-14T04:53:40.350Z,32.43
2023-02-14T04:56:09.389Z,29.40
2023-02-14T04:58:38.599Z,33.00
2023-02-14T05:01:07.300Z,34.10
2023-02-14T05:03:37.346Z,35.80
2023-02-14T05:06:06.351Z,42.97
2023-02-14T05:08:35.059Z,34.97
2023-02-14T05:11:03.631Z,33.23
2023-02-14T05:13:32.220Z,33.50
2023-02-14T05:16:01.482Z,38.40
2023-02-14T05:18:29.995Z,34.00
2023-02-14T05:21:00.378Z,36.80
2023-02-14T05:23:33.028Z,34.00
2023-02-14T05:26:01.508Z,28.70
2023-02-14T05:28:29.980Z,29.73
2023-02-14T05:30:59.225Z,30.97
2023-02-14T05:33:28.431Z,35.30
2023-02-14T05:35:56.868Z,31.07
2023-02-14T05:38:26.777Z,36.10
2023-02-14T05:40:55.444Z,34.23
2023-02-14T05:43:23.893Z,35.50
2023-02-14T05:45:52.383Z,34.00
2023-02-14T05:48:21.057Z,35.40
2023-02-14T05:50:49.745Z,40.97
2023-02-14T05:53:19.008Z,36.57
2023-02-14T05:55:49.079Z,28.03
2023-02-14T05:58:17.502Z,33.67
2023-02-14T06:00:46.047Z,36.17
2023-02-14T06:03:14.526Z,29.20
2023-02-14T06:05:42.959Z,30.27
2023-02-14T06:08:11.512Z,32.60
2023-02-14T06:10:39.952Z,27.63
2023-02-14T06:13:10.723Z,35.17
2023-02-14T06:15:39.687Z,32.00
2023-02-14T06:18:08.399Z,31.97
2023-02-14T06:20:37.224Z,34.63
2023-02-14T06:23:05.822Z,39.80
2023-02-14T06:25:34.711Z,39.80
2023-02-14T06:28:03.315Z,37.23
2023-02-14T06:30:33.314Z,37.30
2023-02-14T06:33:02.040Z,33.30
2023-02-14T06:35:30.573Z,35.13
2023-02-14T06:37:58.963Z,30.20
2023-02-14T06:40:27.299Z,36.63
2023-02-14T06:42:55.691Z,35.23
2023-02-14T06:45:24.110Z,32.03
2023-02-14T06:47:53.825Z,32.10
2023-02-14T06:50:22.461Z,26.73
2023-02-14T06:52:51.471Z,27.40
2023-02-14T06:55:20.308Z,29.33
2023-02-14T06:57:48.666Z,31.37
2023-02-14T07:00:18.334Z,31.03
2023-02-14T07:02:47.058Z,23.27
2023-02-14T07:05:19.164Z,26.83
2023-02-14T07:07:47.720Z,28.57
2023-02-14T07:10:17.042Z,21.43
2023-02-14T07:12:45.728Z,25.50
2023-02-14T07:15:15.601Z,26.53
2023-02-14T07:17:44.431Z,19.77
2023-02-14T07:20:15.896Z,23.50
2023-02-14T07:22:44.311Z,26.60
2023-02-14T07:25:15.186Z,23.87
2023-02-14T07:27:45.600Z,25.07
2023-02-14T07:30:15.497Z,26.87
2023-02-14T07:32:43.920Z,20.97
2023-02-14T07:35:14.942Z,18.97
2023-02-14T07:37:44.999Z,20.03
2023-02-14T07:40:15.334Z,21.47
2023-02-14T07:42:44.229Z,21.87
2023-02-14T07:45:21.672Z,26.30
2023-02-14T07:47:51.779Z,22.30
2023-02-14T07:50:21.317Z,24.83
2023-02-14T07:52:51.503Z,18.43
2023-02-14T07:55:20.432Z,23.03
2023-02-14T07:57:49.750Z,20.27
2023-02-14T08:00:19.735Z,19.67
2023-02-14T08:02:49.511Z,24.70
2023-02-14T08:05:18.549Z,21.70
2023-02-14T08:07:47.358Z,21.40
2023-02-14T08:10:17.508Z,22.10
2023-02-14T08:13:01.300Z,22.63
2023-02-14T08:15:49.920Z,20.10
2023-02-14T08:18:19.293Z,20.77
2023-02-14T08:20:49.868Z,19.40
2023-02-14T08:23:20.323Z,19.80
2023-02-14T08:25:52.891Z,20.63
2023-02-14T08:28:22.058Z,19.00
2023-02-14T08:30:51.111Z,24.37
2023-02-14T08:33:19.858Z,23.47
2023-02-14T08:35:48.452Z,21.33
2023-02-14T08:38:16.957Z,23.13
2023-02-14T08:40:45.463Z,27.10
2023-02-14T08:43:15.673Z,22.03
2023-02-14T08:45:44.176Z,21.60
2023-02-14T08:48:13.946Z,24.30
2023-02-14T08:50:42.800Z,25.30
2023-02-14T08:53:13.361Z,24.30
2023-02-14T08:55:42.234Z,23.97
2023-02-14T08:58:10.721Z,23.13
2023-02-14T09:00:40.755Z,25.27
2023-02-14T09:03:10.665Z,20.40
2023-02-14T09:05:39.245Z,23.47
2023-02-14T09:08:07.855Z,21.30
2023-02-14T09:10:36.300Z,28.53
2023-02-14T09:13:04.780Z,26.50
2023-02-14T09:15:33.203Z,25.13
2023-02-14T09:18:03.094Z,24.50
2023-02-14T09:20:31.553Z,25.73
2023-02-14T09:22:59.967Z,23.37
2023-02-14T09:25:28.435Z,27.00
2023-02-14T09:27:56.800Z,28.63
2023-02-14T09:30:25.236Z,26.47
2023-02-14T09:32:54.860Z,23.60
2023-02-14T09:35:42.034Z,22.87
2023-02-14T09:38:18.446Z,24.47
2023-02-14T09:40:48.339Z,26.30
2023-02-14T09:43:24.528Z,24.00
2023-02-14T09:45:56.654Z,23.20
2023-02-14T09:48:30.630Z,25.13
2023-02-14T09:51:04.946Z,25.77
2023-02-14T09:53:37.229Z,25.07
2023-02-14T09:56:17.501Z,28.30
2023-02-14T09:58:53.221Z,25.00
2023-02-14T10:01:28.157Z,24.93
2023-02-14T10:04:19.426Z,23.60
2023-02-14T10:06:52.783Z,27.97
2023-02-14T10:09:37.654Z,25.10
2023-02-14T10:12:11.868Z,26.77
2023-02-14T10:14:41.427Z,28.57
2023-02-14T10:17:16.632Z,26.23
2023-02-14T10:19:49.955Z,29.00
2023-02-14T10:22:23.242Z,25.30
2023-02-14T10:24:57.462Z,23.37
2023-02-14T10:27:34.582Z,24.50
2023-02-14T10:30:03.725Z,30.30
2023-02-14T10:32:41.369Z,28.20
2023-02-14T10:35:25.910Z,30.07
2023-02-14T10:38:10.260Z,27.80
2023-02-14T10:41:22.146Z,26.00
2023-02-14T10:44:02.747Z,29.10
2023-02-14T10:46:40.018Z,29.37
2023-02-14T10:49:27.163Z,26.80
2023-02-14T10:52:04.319Z,30.10
2023-02-14T10:54:40.770Z,28.73
2023-02-14T10:57:16.105Z,23.50
2023-02-14T10:59:52.662Z,26.80
2023-02-14T11:02:26.399Z,22.00
2023-02-14T11:04:56.241Z,24.10
2023-02-14T11:07:24.817Z,25.67
2023-02-14T11:09:54.617Z,26.80
2023-02-14T11:12:38.413Z,30.80
2023-02-14T11:15:22.056Z,26.67
2023-02-14T11:17:51.985Z,25.27
2023-02-14T11:20:31.399Z,34.67
2023-02-14T11:23:00.103Z,30.30
2023-02-14T11:25:31.801Z,29.73
2023-02-14T11:28:04.270Z,24.63
2023-02-14T11:30:37.080Z,27.30
2023-02-14T11:33:06.209Z,30.43
2023-02-14T11:35:35.060Z,25.97
2023-02-14T11:38:06.268Z,30.23
2023-02-14T11:40:38.624Z,31.23
2023-02-14T11:43:21.404Z,27.23
2023-02-14T11:45:50.639Z,29.67
2023-02-14T11:48:36.812Z,21.73
2023-02-14T11:51:10.194Z,25.90
2023-02-14T11:53:46.556Z,22.13
2023-02-14T11:56:18.042Z,24.50
2023-02-14T11:58:52.489Z,27.70
2023-02-14T12:01:26.301Z,26.07
2023-02-14T12:03:57.727Z,27.83
2023-02-14T12:06:28.123Z,27.40
2023-02-14T12:09:25.993Z,27.63
2023-02-14T12:11:58.908Z,31.33
2023-02-14T12:14:31.504Z,25.83
2023-02-14T12:17:07.103Z,26.77
2023-02-14T12:19:45.765Z,27.57
2023-02-14T12:22:18.608Z,27.73
2023-02-14T12:25:00.111Z,26.57
2023-02-14T12:27:35.628Z,28.00
2023-02-14T12:30:14.295Z,31.60
2023-02-14T12:32:50.300Z,23.30
2023-02-14T12:35:22.332Z,24.90
2023-02-14T12:38:05.171Z,26.07
2023-02-14T12:40:46.718Z,28.50
2023-02-14T12:43:48.036Z,32.97
2023-02-14T12:46:31.426Z,24.83
2023-02-14T12:49:57.697Z,31.20
2023-02-14T12:52:54.212Z,24.70
2023-02-14T12:55:42.129Z,29.50
2023-02-14T12:58:27.215Z,28.90
2023-02-14T13:01:21.709Z,30.80
2023-02-14T13:04:41.044Z,28.20
2023-02-14T13:07:22.473Z,34.37
2023-02-14T13:09:59.726Z,29.17
2023-02-14T13:12:38.291Z,26.37
2023-02-14T13:15:21.946Z,28.90
2023-02-14T13:17:54.874Z,27.00
2023-02-14T13:20:41.694Z,27.30
2023-02-14T13:23:17.549Z,23.17
2023-02-14T13:25:52.935Z,27.33
2023-02-14T13:28:22.033Z,25.97
2023-02-14T13:30:51.775Z,27.43
2023-02-14T13:33:35.072Z,32.03
2023-02-14T13:36:08.250Z,31.57
2023-02-14T13:38:45.245Z,26.60
2023-02-14T13:41:15.250Z,35.33
2023-02-14T13:43:56.285Z,29.00
2023-02-14T13:46:50.228Z,29.40
2023-02-14T13:49:37.901Z,27.43
2023-02-14T13:52:07.819Z,32.50
2023-02-14T13:54:44.198Z,27.30
2023-02-14T13:57:34.060Z,29.50
2023-02-14T14:00:41.746Z,27.97
2023-02-14T14:03:16.875Z,29.80
2023-02-14T14:06:07.657Z,31.30
2023-02-14T14:08:49.386Z,31.67
2023-02-14T14:11:57.217Z,28.30
2023-02-14T14:14:36.506Z,28.70
2023-02-14T14:17:25.974Z,25.73
2023-02-14T14:19:57.941Z,26.40
2023-02-14T14:22:27.910Z,24.23
2023-02-14T14:25:02.609Z,27.57
2023-02-14T14:27:34.922Z,26.80
2023-02-14T14:30:08.361Z,28.23
2023-02-14T14:32:39.634Z,25.30
2023-02-14T14:35:20.663Z,33.97
2023-02-14T14:37:52.129Z,25.70
2023-02-14T14:40:28.806Z,25.97
2023-02-14T14:43:03.149Z,26.90
2023-02-14T14:45:32.700Z,29.67
2023-02-14T14:48:09.167Z,24.50
2023-02-14T14:50:39.940Z,29.17
2023-02-14T14:53:15.708Z,26.70
2023-02-14T14:55:51.944Z,25.87
2023-02-14T14:58:37.456Z,31.20
2023-02-14T15:01:07.501Z,27.00
2023-02-14T15:03:36.113Z,27.60
2023-02-14T15:06:19.056Z,27.13
2023-02-14T15:08:49.253Z,29.77
2023-02-14T15:11:35.902Z,30.13
2023-02-14T15:14:06.459Z,26.33
2023-02-14T15:16:42.378Z,25.87
2023-02-14T15:19:17.265Z,22.50
2023-02-14T15:21:47.504Z,32.80
2023-02-14T15:24:18.569Z,26.47
2023-02-14T15:26:50.148Z,28.70
2023-02-14T15:29:25.862Z,31.50
2023-02-14T15:31:55.419Z,28.93
2023-02-14T15:34:26.704Z,29.03
2023-02-14T15:37:03.515Z,26.93
2023-02-14T15:39:39.345Z,32.40
2023-02-14T15:42:25.875Z,26.33
2023-02-14T15:45:19.258Z,27.40
2023-02-14T15:47:50.287Z,26.50
2023-02-14T15:50:24.205Z,28.67
2023-02-14T15:52:57.434Z,26.77
2023-02-14T15:55:28.883Z,33.83
2023-02-14T15:58:01.883Z,31.77
2023-02-14T16:00:31.723Z,35.07
2023-02-14T16:03:03.855Z,29.77
2023-02-14T16:05:32.307Z,31.13
2023-02-14T16:08:05.176Z,35.03
2023-02-14T16:10:35.142Z,31.03
2023-02-14T16:13:08.657Z,33.80
2023-02-14T16:15:38.840Z,31.43
2023-02-14T16:18:20.647Z,35.10
2023-02-14T16:20:51.298Z,33.03
2023-02-14T16:23:25.388Z,39.03
2023-02-14T16:25:57.345Z,39.07
2023-02-14T16:28:30.483Z,44.37
2023-02-14T16:31:03.184Z,36.40
2023-02-14T16:33:35.808Z,40.63
2023-02-14T16:36:09.476Z,40.67
2023-02-14T16:38:44.566Z,38.67
2023-02-14T16:41:21.700Z,43.87
2023-02-14T16:43:51.089Z,39.57
2023-02-14T16:46:22.351Z,40.77
2023-02-14T16:48:52.455Z,36.60
2023-02-14T16:51:23.859Z,40.33
2023-02-14T16:53:55.150Z,40.13
2023-02-14T16:56:29.878Z,39.37
2023-02-14T16:58:58.693Z,44.73
2023-02-14T17:01:27.385Z,45.00
2023-02-14T17:03:55.742Z,43.10
2023-02-14T17:06:28.686Z,46.33
2023-02-14T17:09:00.914Z,43.57
2023-02-14T17:11:32.526Z,44.63
2023-02-14T17:14:01.181Z,44.87
2023-02-14T17:16:32.412Z,43.87
2023-02-14T17:19:03.320Z,39.87
2023-02-14T17:21:32.034Z,45.27
2023-02-14T17:24:01.857Z,45.40
2023-02-14T17:26:30.248Z,48.13
2023-02-14T17:28:58.654Z,51.73
2023-02-14T17:31:28.629Z,43.80
2023-02-14T17:33:57.698Z,49.33
2023-02-14T17:36:26.482Z,45.47
2023-02-14T17:38:55.885Z,45.13
2023-02-14T17:41:29.265Z,52.70
2023-02-14T17:44:00.358Z,43.57
2023-02-14T17:46:30.210Z,48.20
2023-02-14T17:49:01.834Z,47.93
2023-02-14T17:51:30.904Z,41.63
2023-02-14T17:53:59.441Z,53.17
2023-02-14T17:56:29.352Z,41.50
2023-02-14T17:58:57.808Z,36.67
2023-02-14T18:01:31.560Z,36.10
2023-02-14T18:04:00.022Z,33.03
2023-02-14T18:06:28.478Z,36.13
2023-02-14T18:08:57.724Z,32.03
2023-02-14T18:11:30.010Z,32.90
2023-02-14T18:13:59.745Z,31.73
2023-02-14T18:16:28.653Z,36.50
2023-02-14T18:18:57.134Z,31.20
2023-02-14T18:21:25.538Z,33.07
2023-02-14T18:23:53.913Z,38.10
2023-02-14T18:26:22.324Z,31.83
2023-02-14T18:28:52.081Z,33.77
2023-02-14T18:31:21.193Z,32.00
2023-02-14T18:33:51.350Z,30.77
2023-02-14T18:36:24.168Z,29.60
2023-02-14T18:38:52.724Z,32.20
2023-02-14T18:41:22.372Z,29.13
2023-02-14T18:43:52.662Z,33.93
2023-02-14T18:46:23.866Z,35.43
2023-02-14T18:48:53.036Z,35.10
2023-02-14T18:51:23.983Z,31.20
2023-02-14T18:53:52.908Z,30.13
2023-02-14T18:56:23.995Z,33.90
2023-02-14T18:58:59.276Z,30.73
2023-02-14T19:01:30.562Z,33.37
2023-02-14T19:04:00.695Z,42.30
2023-02-14T19:06:32.370Z,37.37
2023-02-14T19:09:01.502Z,33.93
2023-02-14T19:11:33.882Z,37.80
2023-02-14T19:14:09.401Z,30.97
2023-02-14T19:16:42.229Z,36.33
2023-02-14T19:19:11.386Z,37.87
2023-02-14T19:21:39.715Z,35.43
2023-02-14T19:24:09.400Z,35.47
2023-02-14T19:26:40.923Z,39.17
2023-02-14T19:29:14.280Z,40.83
2023-02-14T19:31:45.114Z,44.37
2023-02-14T19:34:19.198Z,40.40
2023-02-14T19:36:48.970Z,40.57
2023-02-14T19:39:19.081Z,43.93
2023-02-14T19:41:48.829Z,46.40
2023-02-14T19:44:19.935Z,42.90
2023-02-14T19:46:49.037Z,39.43
2023-02-14T19:49:20.081Z,44.83
2023-02-14T19:51:51.305Z,46.10
2023-02-14T19:54:21.926Z,44.90
2023-02-14T19:56:50.451Z,43.77
2023-02-14T19:59:22.721Z,39.50
2023-02-14T20:01:52.645Z,44.83
2023-02-14T20:04:23.866Z,41.97
2023-02-14T20:06:53.169Z,44.40
2023-02-14T20:09:24.018Z,42.53
2023-02-14T20:11:54.613Z,44.73
2023-02-14T20:14:26.603Z,44.33
2023-02-14T20:16:57.695Z,45.67
2023-02-14T20:19:29.497Z,45.70
2023-02-14T20:21:57.996Z,46.50
2023-02-14T20:24:30.388Z,44.87
2023-02-14T20:27:00.484Z,45.50
2023-02-14T20:29:30.546Z,45.13
2023-02-14T20:32:03.653Z,39.40
2023-02-14T20:34:32.289Z,40.10
2023-02-14T20:37:00.786Z,47.47
2023-02-14T20:39:32.226Z,49.50
2023-02-14T20:42:01.106Z,43.10
2023-02-14T20:44:31.210Z,46.57
2023-02-14T20:46:59.950Z,40.33
2023-02-14T20:49:31.313Z,37.13
2023-02-14T20:52:00.687Z,43.20
2023-02-14T20:54:31.003Z,39.27
2023-02-14T20:56:59.431Z,44.43
2023-02-14T20:59:28.814Z,43.53
2023-02-14T21:02:00.071Z,39.37
2023-02-14T21:04:29.895Z,50.37
2023-02-14T21:07:00.248Z,39.57
2023-02-14T21:09:28.849Z,42.87
2023-02-14T21:11:58.457Z,43.87
2023-02-14T21:14:27.153Z,44.37
2023-02-14T21:16:55.641Z,48.77
2023-02-14T21:19:27.847Z,47.57
2023-02-14T21:21:56.366Z,42.93
2023-02-14T21:24:25.185Z,41.63
2023-02-14T21:26:53.587Z,42.43
2023-02-14T21:29:22.456Z,47.80
2023-02-14T21:31:50.996Z,46.87
2023-02-14T21:34:19.776Z,44.40
2023-02-14T21:36:49.619Z,49.27
2023-02-14T21:39:19.077Z,46.60
2023-02-14T21:41:47.512Z,45.80
2023-02-14T21:44:40.329Z,47.27
2023-02-14T21:47:07.853Z,41.73
2023-02-14T21:49:53.793Z,42.87
2023-02-14T21:52:23.654Z,49.00
2023-02-14T21:54:52.633Z,37.80
2023-02-14T21:57:21.135Z,38.53
2023-02-14T21:59:49.643Z,37.70
2023-02-14T22:02:18.213Z,42.00
2023-02-14T22:04:47.138Z,40.60
2023-02-14T22:07:17.786Z,36.30
2023-02-14T22:09:47.664Z,45.10
2023-02-14T22:12:16.179Z,41.77
2023-02-14T22:14:44.562Z,47.57
2023-02-14T22:17:12.997Z,38.73
2023-02-14T22:19:41.577Z,38.40
2023-02-14T22:22:10.103Z,39.10
2023-02-14T22:24:38.804Z,42.67
2023-02-14T22:27:08.715Z,40.30
2023-02-14T22:29:37.376Z,44.97
2023-02-14T22:32:06.580Z,43.37
2023-02-14T22:34:35.475Z,43.87
2023-02-14T22:37:03.985Z,41.13
2023-02-14T22:39:32.466Z,41.90
2023-02-14T22:42:05.391Z,38.80
2023-02-14T22:44:35.196Z,41.13
2023-02-14T22:47:03.678Z,39.47
2023-02-14T22:49:32.250Z,42.53
2023-02-14T22:52:00.606Z,38.77
2023-02-14T22:54:29.258Z,42.53
2023-02-14T22:56:57.590Z,45.03
2023-02-14T22:59:28.314Z,39.63
2023-02-14T23:01:58.169Z,40.97
2023-02-14T23:04:29.420Z,37.40
2023-02-14T23:06:57.954Z,42.37
2023-02-14T23:09:26.705Z,42.93
2023-02-14T23:11:55.173Z,43.20
2023-02-14T23:14:41.005Z,39.90
2023-02-14T23:17:34.406Z,36.97
2023-02-14T23:20:20.481Z,40.73
2023-02-14T23:22:49.373Z,39.67
2023-02-14T23:25:17.942Z,39.63
2023-02-14T23:27:48.409Z,41.63
2023-02-14T23:30:19.541Z,39.03
2023-02-14T23:32:49.370Z,40.03
2023-02-14T23:35:18.088Z,37.13
2023-02-14T23:37:46.637Z,35.40
2023-02-14T23:40:15.243Z,38.10
2023-02-14T23:42:43.787Z,40.60
2023-02-14T23:45:29.654Z,37.30
2023-02-14T23:48:03.609Z,35.07
2023-02-14T23:50:32.406Z,39.77
2023-02-14T23:53:01.231Z,39.00
2023-02-14T23:55:29.763Z,43.40
2023-02-14T23:57:58.178Z,42.83
